createdAt,value
2022-12-09T00:00:21.320Z,16.29
2022-12-09T00:01:21.566Z,16.18
2022-12-09T00:02:21.785Z,16.26
2022-12-09T00:03:23.865Z,16.22
2022-12-09T00:04:21.642Z,16.23
2022-12-09T00:05:21.585Z,16.29
2022-12-09T00:06:21.486Z,16.32
2022-12-09T00:08:21.953Z,16.25
2022-12-09T00:09:21.908Z,16.29
2022-12-09T00:10:21.673Z,16.29
2022-12-09T00:11:21.947Z,16.18
2022-12-09T00:12:21.617Z,16.29
2022-12-09T00:13:21.738Z,16.26
2022-12-09T00:14:22.076Z,16.18
2022-12-09T00:15:21.687Z,16.18
2022-12-09T00:16:21.989Z,16.27
2022-12-09T00:17:21.817Z,16.25
2022-12-09T00:19:21.816Z,16.17
2022-12-09T00:20:21.882Z,16.11
2022-12-09T00:21:22.189Z,16.23
2022-12-09T00:22:21.945Z,16.18
2022-12-09T00:23:21.888Z,16.18
2022-12-09T00:24:21.964Z,16.13
2022-12-09T00:25:22.059Z,16.22
2022-12-09T00:26:21.958Z,16.26
2022-12-09T00:27:22.009Z,16.16
2022-12-09T00:28:22.008Z,16.16
2022-12-09T00:29:22.160Z,16.18
2022-12-09T00:30:22.153Z,16.13
2022-12-09T00:31:22.317Z,16.18
2022-12-09T00:32:22.225Z,16.18
2022-12-09T00:33:22.131Z,16.25
2022-12-09T00:34:22.461Z,16.11
2022-12-09T00:35:22.331Z,16.18
2022-12-09T00:36:22.205Z,16.23
2022-12-09T00:37:22.232Z,16.18
2022-12-09T00:38:22.283Z,16.18
2022-12-09T00:39:22.355Z,16.17
2022-12-09T00:40:22.302Z,16.11
2022-12-09T00:41:22.627Z,16.16
2022-12-09T00:42:22.484Z,16.17
2022-12-09T00:43:22.432Z,16.17
2022-12-09T00:44:22.466Z,16.13
2022-12-09T00:45:22.537Z,16.18
2022-12-09T00:46:22.778Z,16.10
2022-12-09T00:47:22.770Z,16.13
2022-12-09T00:48:22.805Z,16.08
2022-12-09T00:49:22.788Z,16.13
2022-12-09T00:50:22.616Z,16.22
2022-12-09T00:51:22.583Z,16.08
2022-12-09T00:52:22.601Z,16.14
2022-12-09T00:53:22.929Z,16.13
2022-12-09T00:54:22.960Z,16.14
2022-12-09T00:55:23.012Z,16.13
2022-12-09T00:56:22.801Z,16.16
2022-12-09T00:57:22.851Z,16.08
2022-12-09T00:58:22.975Z,16.17
2022-12-09T00:59:22.804Z,16.11
2022-12-09T01:00:23.045Z,16.16
2022-12-09T01:01:23.133Z,16.11
2022-12-09T01:02:23.499Z,16.10
2022-12-09T01:03:23.000Z,16.10
2022-12-09T01:04:22.947Z,16.18
2022-12-09T01:06:23.216Z,16.07
2022-12-09T01:07:23.214Z,16.06
2022-12-09T01:09:23.636Z,16.10
2022-12-09T01:10:23.312Z,16.08
2022-12-09T01:11:23.198Z,16.04
2022-12-09T01:12:23.335Z,16.13
2022-12-09T01:13:23.347Z,16.11
2022-12-09T01:14:23.139Z,16.10
2022-12-09T01:15:23.279Z,16.10
2022-12-09T01:16:23.751Z,16.03
2022-12-09T01:17:23.424Z,16.07
2022-12-09T01:18:23.468Z,16.10
2022-12-09T01:19:23.516Z,16.10
2022-12-09T01:20:23.587Z,16.03
2022-12-09T01:21:23.552Z,16.07
2022-12-09T01:22:23.656Z,16.06
2022-12-09T01:24:23.648Z,16.04
2022-12-09T01:25:23.691Z,16.07
2022-12-09T01:26:23.430Z,16.01
2022-12-09T01:27:23.784Z,16.07
2022-12-09T01:28:23.651Z,15.99
2022-12-09T01:29:23.509Z,16.04
2022-12-09T01:30:23.862Z,16.06
2022-12-09T01:31:24.082Z,16.04
2022-12-09T01:32:23.633Z,16.11
2022-12-09T01:33:23.768Z,16.03
2022-12-09T01:34:23.977Z,16.08
2022-12-09T01:35:23.656Z,16.06
2022-12-09T01:36:23.999Z,16.04
2022-12-09T01:38:24.248Z,16.07
2022-12-09T01:39:23.947Z,16.03
2022-12-09T01:40:23.804Z,15.99
2022-12-09T01:41:24.113Z,16.06
2022-12-09T01:42:24.035Z,16.06
2022-12-09T01:43:23.847Z,16.01
2022-12-09T01:44:24.305Z,16.06
2022-12-09T01:45:24.322Z,16.03
2022-12-09T01:46:24.167Z,15.99
2022-12-09T01:48:23.990Z,15.96
2022-12-09T01:49:24.072Z,15.98
2022-12-09T01:50:24.144Z,15.96
2022-12-09T01:51:24.074Z,15.99
2022-12-09T01:52:24.479Z,15.96
2022-12-09T01:53:24.093Z,15.91
2022-12-09T01:54:24.112Z,15.96
2022-12-09T01:55:24.144Z,16.01
2022-12-09T01:57:24.516Z,15.96
2022-12-09T01:58:24.645Z,15.98
2022-12-09T01:59:24.786Z,15.95
2022-12-09T02:00:25.066Z,15.96
2022-12-09T02:01:24.570Z,15.95
2022-12-09T02:02:24.437Z,15.95
2022-12-09T02:03:24.821Z,15.95
2022-12-09T02:04:24.629Z,15.95
2022-12-09T02:05:24.741Z,16.01
2022-12-09T02:06:24.740Z,15.96
2022-12-09T02:07:24.573Z,15.93
2022-12-09T02:08:24.545Z,15.95
2022-12-09T02:09:24.577Z,15.96
2022-12-09T02:10:24.733Z,15.96
2022-12-09T02:11:24.909Z,15.95
2022-12-09T02:12:24.876Z,15.95
2022-12-09T02:13:25.091Z,15.93
2022-12-09T02:14:24.602Z,15.92
2022-12-09T02:15:24.630Z,15.88
2022-12-09T02:16:24.691Z,15.89
2022-12-09T02:17:25.109Z,15.85
2022-12-09T02:18:24.715Z,15.93
2022-12-09T02:19:25.012Z,15.91
2022-12-09T02:20:24.856Z,15.93
2022-12-09T02:21:25.047Z,15.89
2022-12-09T02:22:24.833Z,15.91
2022-12-09T02:23:25.115Z,15.91
2022-12-09T02:24:25.129Z,15.89
2022-12-09T02:25:25.008Z,15.96
2022-12-09T02:26:25.209Z,15.89
2022-12-09T02:27:25.194Z,15.86
2022-12-09T02:28:25.364Z,15.89
2022-12-09T02:29:25.024Z,15.81
2022-12-09T02:30:25.192Z,15.84
2022-12-09T02:31:25.160Z,15.86
2022-12-09T02:32:25.443Z,15.86
2022-12-09T02:33:25.146Z,15.84
2022-12-09T02:34:25.093Z,15.80
2022-12-09T02:35:25.225Z,15.85
2022-12-09T02:36:25.170Z,15.84
2022-12-09T02:37:25.291Z,15.81
2022-12-09T02:38:25.337Z,15.81
2022-12-09T02:39:25.211Z,15.88
2022-12-09T02:40:25.240Z,15.78
2022-12-09T02:41:25.264Z,15.81
2022-12-09T02:42:25.325Z,15.85
2022-12-09T02:43:25.452Z,15.76
2022-12-09T02:44:25.712Z,15.86
2022-12-09T02:45:25.569Z,15.85
2022-12-09T02:46:25.785Z,15.86
2022-12-09T02:47:25.601Z,15.76
2022-12-09T02:48:25.576Z,15.80
2022-12-09T02:49:25.674Z,15.78
2022-12-09T02:50:25.590Z,15.78
2022-12-09T02:51:25.774Z,15.81
2022-12-09T02:52:25.875Z,15.86
2022-12-09T02:53:25.843Z,15.84
2022-12-09T02:54:25.599Z,15.77
2022-12-09T02:55:25.621Z,15.81
2022-12-09T02:56:25.674Z,15.80
2022-12-09T02:57:26.040Z,15.80
2022-12-09T02:58:26.071Z,15.78
2022-12-09T02:59:25.740Z,15.74
2022-12-09T03:00:25.742Z,15.80
2022-12-09T03:01:25.951Z,15.76
2022-12-09T03:02:26.368Z,15.78
2022-12-09T03:03:26.233Z,15.81
2022-12-09T03:04:26.140Z,15.77
2022-12-09T03:05:26.120Z,15.76
2022-12-09T03:06:25.874Z,15.78
2022-12-09T03:07:26.015Z,15.73
2022-12-09T03:08:26.046Z,15.71
2022-12-09T03:09:26.049Z,15.74
2022-12-09T03:10:26.366Z,15.76
2022-12-09T03:11:26.579Z,15.76
2022-12-09T03:12:26.028Z,15.76
2022-12-09T03:13:26.122Z,15.78
2022-12-09T03:14:26.276Z,15.78
2022-12-09T03:15:26.365Z,15.80
2022-12-09T03:16:26.265Z,15.74
2022-12-09T03:17:26.505Z,15.74
2022-12-09T03:18:26.744Z,15.73
2022-12-09T03:19:26.199Z,15.68
2022-12-09T03:20:26.495Z,15.78
2022-12-09T03:21:26.293Z,15.70
2022-12-09T03:22:26.267Z,15.76
2022-12-09T03:23:26.319Z,15.78
2022-12-09T03:24:26.331Z,15.76
2022-12-09T03:25:26.980Z,15.70
2022-12-09T03:26:26.421Z,15.66
2022-12-09T03:27:26.553Z,15.71
2022-12-09T03:28:26.814Z,15.67
2022-12-09T03:29:26.436Z,15.67
2022-12-09T03:30:26.782Z,15.67
2022-12-09T03:31:27.131Z,15.70
2022-12-09T03:32:26.883Z,15.68
2022-12-09T03:33:26.631Z,15.66
2022-12-09T03:35:26.651Z,15.67
2022-12-09T03:36:26.619Z,15.71
2022-12-09T03:37:26.695Z,15.67
2022-12-09T03:38:26.652Z,15.67
2022-12-09T03:39:26.686Z,15.60
2022-12-09T03:40:26.975Z,15.66
2022-12-09T03:41:27.045Z,15.67
2022-12-09T03:42:26.762Z,15.62
2022-12-09T03:43:27.029Z,15.58
2022-12-09T03:44:26.820Z,15.66
2022-12-09T03:45:26.903Z,15.66
2022-12-09T03:46:26.976Z,15.64
2022-12-09T03:47:27.055Z,15.68
2022-12-09T03:48:26.904Z,15.60
2022-12-09T03:49:27.071Z,15.80
2022-12-09T03:50:27.257Z,15.60
2022-12-09T03:51:27.362Z,15.59
2022-12-09T03:52:27.105Z,15.59
2022-12-09T03:53:27.030Z,15.62
2022-12-09T03:54:27.042Z,15.62
2022-12-09T03:55:27.162Z,15.60
2022-12-09T03:56:27.197Z,15.64
2022-12-09T03:57:27.843Z,15.67
2022-12-09T03:58:27.279Z,15.67
2022-12-09T03:59:27.458Z,15.60
2022-12-09T04:00:27.580Z,15.66
2022-12-09T04:01:27.499Z,15.67
2022-12-09T04:02:27.488Z,15.74
2022-12-09T04:03:27.513Z,15.67
2022-12-09T04:05:27.837Z,15.55
2022-12-09T04:06:27.406Z,15.68
2022-12-09T04:07:27.362Z,15.66
2022-12-09T04:08:27.832Z,15.62
2022-12-09T04:09:27.799Z,15.70
2022-12-09T04:10:27.722Z,15.64
2022-12-09T04:11:27.461Z,15.66
2022-12-09T04:13:28.207Z,15.67
2022-12-09T04:14:27.655Z,15.64
2022-12-09T04:15:27.647Z,15.70
2022-12-09T04:16:27.819Z,15.58
2022-12-09T04:17:27.986Z,15.70
2022-12-09T04:18:28.090Z,15.56
2022-12-09T04:19:27.957Z,15.64
2022-12-09T04:20:28.033Z,15.53
2022-12-09T04:21:27.984Z,15.68
2022-12-09T04:22:28.098Z,15.64
2022-12-09T04:23:27.948Z,15.53
2022-12-09T04:24:27.778Z,15.56
2022-12-09T04:25:27.803Z,15.53
2022-12-09T04:26:28.168Z,15.73
2022-12-09T04:27:28.207Z,15.68
2022-12-09T04:28:27.938Z,15.60
2022-12-09T04:29:28.178Z,15.68
2022-12-09T04:30:28.104Z,15.67
2022-12-09T04:31:28.154Z,15.67
2022-12-09T04:32:28.174Z,15.56
2022-12-09T04:33:28.326Z,15.55
2022-12-09T04:34:28.413Z,15.67
2022-12-09T04:35:28.309Z,15.66
2022-12-09T04:36:28.428Z,15.58
2022-12-09T04:37:28.277Z,15.62
2022-12-09T04:38:28.237Z,15.64
2022-12-09T04:39:28.282Z,15.60
2022-12-09T04:41:29.797Z,15.58
2022-12-09T04:42:28.615Z,15.56
2022-12-09T04:43:28.464Z,15.64
2022-12-09T04:44:28.509Z,15.56
2022-12-09T04:45:28.611Z,15.58
2022-12-09T04:46:28.416Z,15.60
2022-12-09T04:47:28.789Z,15.52
2022-12-09T04:48:28.561Z,15.53
2022-12-09T04:49:28.384Z,15.56
2022-12-09T04:50:28.403Z,15.56
2022-12-09T04:51:31.356Z,15.55
2022-12-09T04:52:28.557Z,15.49
2022-12-09T04:53:28.601Z,15.59
2022-12-09T04:54:28.948Z,15.48
2022-12-09T04:55:28.639Z,15.44
2022-12-09T04:56:28.745Z,15.64
2022-12-09T04:57:28.579Z,15.60
2022-12-09T04:58:28.606Z,15.55
2022-12-09T04:59:28.900Z,15.48
2022-12-09T05:00:29.107Z,15.49
2022-12-09T05:01:31.584Z,15.55
2022-12-09T05:02:28.894Z,15.51
2022-12-09T05:03:28.902Z,15.44
2022-12-09T05:04:29.009Z,15.48
2022-12-09T05:05:29.198Z,15.49
2022-12-09T05:06:29.438Z,15.44
2022-12-09T05:07:29.166Z,15.48
2022-12-09T05:08:31.632Z,15.55
2022-12-09T05:09:29.447Z,15.44
2022-12-09T05:10:29.030Z,15.55
2022-12-09T05:11:29.066Z,15.52
2022-12-09T05:12:29.146Z,15.49
2022-12-09T05:13:29.249Z,15.52
2022-12-09T05:14:29.167Z,15.46
2022-12-09T05:15:29.707Z,15.44
2022-12-09T05:16:29.509Z,15.48
2022-12-09T05:17:29.324Z,15.56
2022-12-09T05:18:29.754Z,15.52
2022-12-09T05:19:29.454Z,15.49
2022-12-09T05:20:29.357Z,15.44
2022-12-09T05:21:29.385Z,15.53
2022-12-09T05:22:29.439Z,15.52
2022-12-09T05:23:29.301Z,15.51
2022-12-09T05:24:29.581Z,15.52
2022-12-09T05:25:29.350Z,15.52
2022-12-09T05:26:29.518Z,15.52
2022-12-09T05:27:29.369Z,15.48
2022-12-09T05:28:29.703Z,15.51
2022-12-09T05:29:29.430Z,15.56
2022-12-09T05:30:29.467Z,15.43
2022-12-09T05:31:29.801Z,15.55
2022-12-09T05:32:29.861Z,15.46
2022-12-09T05:34:29.893Z,15.48
2022-12-09T05:35:29.947Z,15.52
2022-12-09T05:36:29.732Z,15.51
2022-12-09T05:37:29.756Z,15.51
2022-12-09T05:38:29.932Z,15.49
2022-12-09T05:39:29.817Z,15.49
2022-12-09T05:40:29.783Z,15.52
2022-12-09T05:41:29.761Z,15.44
2022-12-09T05:42:29.986Z,15.49
2022-12-09T05:43:30.126Z,15.46
2022-12-09T05:44:29.719Z,15.41
2022-12-09T05:45:30.114Z,15.46
2022-12-09T05:46:30.094Z,15.51
2022-12-09T05:47:30.230Z,15.52
2022-12-09T05:48:30.218Z,15.48
2022-12-09T05:49:30.355Z,15.48
2022-12-09T05:50:30.337Z,15.48
2022-12-09T05:51:30.134Z,15.51
2022-12-09T05:52:30.215Z,15.46
2022-12-09T05:53:30.422Z,15.51
2022-12-09T05:54:30.334Z,15.46
2022-12-09T05:55:30.168Z,15.51
2022-12-09T05:56:30.230Z,15.49
2022-12-09T05:57:30.432Z,15.52
2022-12-09T05:58:30.300Z,15.52
2022-12-09T05:59:30.104Z,15.46
2022-12-09T06:00:30.383Z,15.48
2022-12-09T06:01:30.308Z,15.51
2022-12-09T06:02:30.568Z,15.52
2022-12-09T06:03:30.640Z,15.53
2022-12-09T06:04:30.704Z,15.55
2022-12-09T06:05:30.825Z,15.43
2022-12-09T06:06:31.050Z,15.49
2022-12-09T06:07:30.726Z,15.49
2022-12-09T06:08:30.590Z,15.43
2022-12-09T06:09:30.758Z,15.53
2022-12-09T06:10:30.534Z,15.52
2022-12-09T06:11:30.939Z,15.44
2022-12-09T06:12:30.512Z,15.49
2022-12-09T06:13:30.494Z,15.49
2022-12-09T06:15:33.406Z,15.49
2022-12-09T06:17:30.835Z,15.52
2022-12-09T06:18:30.717Z,15.49
2022-12-09T06:19:31.065Z,15.43
2022-12-09T06:20:30.778Z,15.49
2022-12-09T06:21:30.673Z,15.49
2022-12-09T06:22:31.020Z,15.51
2022-12-09T06:23:30.984Z,15.49
2022-12-09T06:24:30.864Z,15.46
2022-12-09T06:25:30.975Z,15.48
2022-12-09T06:26:30.865Z,15.49
2022-12-09T06:27:30.856Z,15.52
2022-12-09T06:28:30.873Z,15.48
2022-12-09T06:29:30.834Z,15.44
2022-12-09T06:31:31.235Z,15.55
2022-12-09T06:32:31.062Z,15.53
2022-12-09T06:33:54.106Z,15.53
2022-12-09T06:34:31.321Z,15.51
2022-12-09T06:35:31.180Z,15.52
2022-12-09T06:36:31.411Z,15.52
2022-12-09T06:37:31.409Z,15.55
2022-12-09T06:38:31.228Z,15.49
2022-12-09T06:39:31.416Z,15.53
2022-12-09T06:40:31.133Z,15.49
2022-12-09T06:41:31.115Z,15.48
2022-12-09T06:42:31.297Z,15.52
2022-12-09T06:43:31.253Z,15.52
2022-12-09T06:44:31.475Z,15.55
2022-12-09T06:45:31.564Z,15.55
2022-12-09T06:46:31.449Z,15.53
2022-12-09T06:47:31.493Z,15.46
2022-12-09T06:48:31.562Z,15.49
2022-12-09T06:49:33.723Z,15.56
2022-12-09T06:50:31.446Z,15.46
2022-12-09T06:51:31.991Z,15.51
2022-12-09T06:52:31.673Z,15.52
2022-12-09T06:53:31.743Z,15.51
2022-12-09T06:54:31.546Z,15.51
2022-12-09T06:55:31.706Z,15.56
2022-12-09T06:56:31.847Z,15.51
2022-12-09T06:57:31.750Z,15.49
2022-12-09T06:59:31.660Z,15.55
2022-12-09T07:00:31.723Z,15.60
2022-12-09T07:01:31.631Z,15.53
2022-12-09T07:03:32.273Z,15.56
2022-12-09T07:04:32.310Z,15.59
2022-12-09T07:05:32.317Z,15.53
2022-12-09T07:06:31.999Z,15.53
2022-12-09T07:07:31.924Z,15.62
2022-12-09T07:08:32.224Z,15.59
2022-12-09T07:09:31.965Z,15.68
2022-12-09T07:10:32.651Z,15.58
2022-12-09T07:11:32.069Z,15.59
2022-12-09T07:12:32.186Z,15.58
2022-12-09T07:13:31.946Z,15.56
2022-12-09T07:14:31.995Z,15.58
2022-12-09T07:15:32.165Z,15.52
2022-12-09T07:16:32.109Z,15.60
2022-12-09T07:17:32.050Z,15.59
2022-12-09T07:18:32.200Z,15.58
2022-12-09T07:19:32.186Z,15.66
2022-12-09T07:20:32.187Z,15.59
2022-12-09T07:21:32.137Z,15.53
2022-12-09T07:22:32.456Z,15.55
2022-12-09T07:23:32.491Z,15.56
2022-12-09T07:24:32.241Z,15.58
2022-12-09T07:25:32.510Z,15.53
2022-12-09T07:26:32.768Z,15.53
2022-12-09T07:27:32.242Z,15.53
2022-12-09T07:28:32.291Z,15.55
2022-12-09T07:29:33.010Z,15.62
2022-12-09T07:30:32.714Z,15.58
2022-12-09T07:31:32.695Z,15.55
2022-12-09T07:32:32.482Z,15.58
2022-12-09T07:33:32.734Z,15.58
2022-12-09T07:34:32.554Z,15.48
2022-12-09T07:35:32.567Z,15.59
2022-12-09T07:36:32.937Z,15.53
2022-12-09T07:37:32.454Z,15.53
2022-12-09T07:38:32.866Z,15.59
2022-12-09T07:39:32.984Z,15.53
2022-12-09T07:40:32.792Z,15.49
2022-12-09T07:41:33.105Z,15.55
2022-12-09T07:42:32.576Z,15.53
2022-12-09T07:43:33.019Z,15.60
2022-12-09T07:44:33.079Z,15.58
2022-12-09T07:45:32.807Z,15.59
2022-12-09T07:46:33.224Z,15.56
2022-12-09T07:47:33.432Z,15.52
2022-12-09T07:48:32.875Z,15.56
2022-12-09T07:49:33.326Z,15.48
2022-12-09T07:50:33.227Z,15.62
2022-12-09T07:51:33.331Z,15.55
2022-12-09T07:52:33.134Z,15.43
2022-12-09T07:53:33.320Z,15.60
2022-12-09T07:54:33.208Z,15.49
2022-12-09T07:55:33.130Z,15.48
2022-12-09T07:56:33.030Z,15.48
2022-12-09T07:57:32.978Z,15.44
2022-12-09T07:58:33.483Z,15.44
2022-12-09T07:59:33.095Z,15.56
2022-12-09T08:00:33.319Z,15.51
2022-12-09T08:01:33.260Z,15.46
2022-12-09T08:02:33.165Z,15.53
2022-12-09T08:03:33.369Z,15.44
2022-12-09T08:04:33.648Z,15.48
2022-12-09T08:05:33.709Z,15.48
2022-12-09T08:06:33.567Z,15.55
2022-12-09T08:07:35.578Z,15.44
2022-12-09T08:08:33.794Z,15.44
2022-12-09T08:09:33.863Z,15.53
2022-12-09T08:10:33.383Z,15.49
2022-12-09T08:11:33.524Z,15.48
2022-12-09T08:12:33.791Z,15.46
2022-12-09T08:13:34.096Z,15.49
2022-12-09T08:14:33.595Z,15.49
2022-12-09T08:15:33.488Z,15.51
2022-12-09T08:16:33.627Z,15.49
2022-12-09T08:17:33.688Z,15.49
2022-12-09T08:18:33.662Z,15.53
2022-12-09T08:19:34.060Z,15.52
2022-12-09T08:20:33.779Z,15.49
2022-12-09T08:21:33.766Z,15.55
2022-12-09T08:22:33.688Z,15.55
2022-12-09T08:23:33.762Z,15.53
2022-12-09T08:24:34.105Z,15.56
2022-12-09T08:25:34.038Z,15.49
2022-12-09T08:26:34.010Z,15.48
2022-12-09T08:27:33.780Z,15.52
2022-12-09T08:28:34.048Z,15.52
2022-12-09T08:29:33.965Z,15.49
2022-12-09T08:30:34.235Z,15.52
2022-12-09T08:31:40.368Z,15.49
2022-12-09T08:32:34.321Z,15.51
2022-12-09T08:33:34.373Z,15.52
2022-12-09T08:34:34.232Z,15.44
2022-12-09T08:35:33.948Z,15.49
2022-12-09T08:36:33.924Z,15.51
2022-12-09T08:37:33.950Z,15.53
2022-12-09T08:38:34.021Z,15.48
2022-12-09T08:39:34.403Z,15.49
2022-12-09T08:40:34.332Z,15.51
2022-12-09T08:41:34.070Z,15.52
2022-12-09T08:42:34.124Z,15.52
2022-12-09T08:43:34.397Z,15.52
2022-12-09T08:44:34.299Z,15.51
2022-12-09T08:45:34.611Z,15.52
2022-12-09T08:46:34.645Z,15.52
2022-12-09T08:47:34.587Z,15.46
2022-12-09T08:48:34.546Z,15.49
2022-12-09T08:50:34.275Z,15.52
2022-12-09T08:51:34.857Z,15.49
2022-12-09T08:52:40.096Z,15.49
2022-12-09T08:53:35.080Z,15.49
2022-12-09T08:54:34.570Z,15.49
2022-12-09T08:55:34.719Z,15.53
2022-12-09T08:56:34.629Z,15.53
2022-12-09T08:57:34.496Z,15.51
2022-12-09T08:58:34.865Z,15.44
2022-12-09T08:59:37.572Z,15.49
2022-12-09T09:00:35.059Z,15.52
2022-12-09T09:01:34.701Z,15.51
2022-12-09T09:02:34.712Z,15.49
2022-12-09T09:03:35.143Z,15.52
2022-12-09T09:04:34.889Z,15.52
2022-12-09T09:05:35.157Z,15.49
2022-12-09T09:07:35.518Z,15.49
2022-12-09T09:08:35.043Z,15.53
2022-12-09T09:09:34.871Z,15.53
2022-12-09T09:10:35.044Z,15.49
2022-12-09T09:11:35.445Z,15.53
2022-12-09T09:12:42.010Z,15.48
2022-12-09T09:13:34.854Z,15.52
2022-12-09T09:14:35.110Z,15.53
2022-12-09T09:15:35.096Z,15.52
2022-12-09T09:16:35.389Z,15.49
2022-12-09T09:17:35.094Z,15.51
2022-12-09T09:18:35.074Z,15.56
2022-12-09T09:19:35.166Z,15.56
2022-12-09T09:20:35.078Z,15.58
2022-12-09T09:21:35.830Z,15.55
2022-12-09T09:22:35.312Z,15.55
2022-12-09T09:23:35.373Z,15.64
2022-12-09T09:24:35.168Z,15.55
2022-12-09T09:25:35.192Z,15.58
2022-12-09T09:27:35.361Z,15.53
2022-12-09T09:28:35.622Z,15.58
2022-12-09T09:29:35.627Z,15.52
2022-12-09T09:30:35.517Z,15.53
2022-12-09T09:31:35.702Z,15.59
2022-12-09T09:32:35.412Z,15.62
2022-12-09T09:33:35.705Z,15.60
2022-12-09T09:34:35.448Z,15.58
2022-12-09T09:35:36.024Z,15.64
2022-12-09T09:36:35.525Z,15.56
2022-12-09T09:37:35.649Z,15.62
2022-12-09T09:38:35.402Z,15.56
2022-12-09T09:39:35.543Z,15.62
2022-12-09T09:40:35.524Z,15.60
2022-12-09T09:41:35.653Z,15.66
2022-12-09T09:42:35.927Z,15.64
2022-12-09T09:44:36.038Z,15.59
2022-12-09T09:45:36.018Z,15.64
2022-12-09T09:46:36.063Z,15.64
2022-12-09T09:47:38.699Z,15.70
2022-12-09T09:48:35.904Z,15.67
2022-12-09T09:49:36.431Z,15.62
2022-12-09T09:50:36.137Z,15.58
2022-12-09T09:51:35.837Z,15.64
2022-12-09T09:52:35.757Z,15.64
2022-12-09T09:53:35.815Z,15.67
2022-12-09T09:54:35.815Z,15.58
2022-12-09T09:55:36.169Z,15.58
2022-12-09T09:56:36.095Z,15.55
2022-12-09T09:57:36.026Z,15.66
2022-12-09T09:58:36.133Z,15.67
2022-12-09T09:59:35.977Z,15.64
2022-12-09T10:00:36.169Z,15.67
2022-12-09T10:01:36.613Z,15.67
2022-12-09T10:02:36.546Z,15.68
2022-12-09T10:03:36.585Z,15.67
2022-12-09T10:04:36.561Z,15.53
2022-12-09T10:05:36.265Z,15.55
2022-12-09T10:06:36.443Z,15.53
2022-12-09T10:07:36.564Z,15.64
2022-12-09T10:08:36.797Z,15.62
2022-12-09T10:09:36.382Z,15.58
2022-12-09T10:10:36.643Z,15.67
2022-12-09T10:11:36.372Z,15.56
2022-12-09T10:12:36.854Z,15.66
2022-12-09T10:13:36.515Z,15.59
2022-12-09T10:14:37.194Z,15.52
2022-12-09T10:15:36.777Z,15.52
2022-12-09T10:16:36.800Z,15.62
2022-12-09T10:17:36.570Z,15.56
2022-12-09T10:18:36.853Z,15.58
2022-12-09T10:19:36.909Z,15.62
2022-12-09T10:20:36.819Z,15.56
2022-12-09T10:21:36.804Z,15.66
2022-12-09T10:22:36.834Z,15.56
2022-12-09T10:23:37.027Z,15.59
2022-12-09T10:24:40.433Z,15.58
2022-12-09T10:25:36.803Z,15.53
2022-12-09T10:26:36.837Z,15.58
2022-12-09T10:27:36.640Z,15.66
2022-12-09T10:28:36.612Z,15.66
2022-12-09T10:29:36.889Z,15.51
2022-12-09T10:30:43.876Z,15.58
2022-12-09T10:31:36.814Z,15.58
2022-12-09T10:32:37.524Z,15.59
2022-12-09T10:33:37.182Z,15.56
2022-12-09T10:34:37.325Z,15.64
2022-12-09T10:35:37.337Z,15.55
2022-12-09T10:36:36.888Z,15.60
2022-12-09T10:37:37.001Z,15.64
2022-12-09T10:38:37.022Z,15.62
2022-12-09T10:39:37.560Z,15.60
2022-12-09T10:40:37.055Z,15.58
2022-12-09T10:41:37.017Z,15.59
2022-12-09T10:42:37.343Z,15.71
2022-12-09T10:43:37.491Z,15.55
2022-12-09T10:44:37.521Z,15.62
2022-12-09T10:46:15.121Z,15.74
2022-12-09T10:46:37.242Z,15.58
2022-12-09T10:47:37.313Z,15.66
2022-12-09T10:48:37.553Z,15.59
2022-12-09T10:49:37.350Z,15.58
2022-12-09T10:50:37.302Z,15.59
2022-12-09T10:51:37.410Z,15.62
2022-12-09T10:52:37.201Z,15.70
2022-12-09T10:53:37.614Z,15.60
2022-12-09T10:54:37.314Z,15.62
2022-12-09T10:55:37.436Z,15.66
2022-12-09T10:56:37.756Z,15.64
2022-12-09T10:57:37.546Z,15.70
2022-12-09T10:58:37.410Z,15.64
2022-12-09T10:59:37.481Z,15.67
2022-12-09T11:00:37.735Z,15.66
2022-12-09T11:01:37.679Z,15.71
2022-12-09T11:02:37.530Z,15.68
2022-12-09T11:03:38.036Z,15.70
2022-12-09T11:04:37.675Z,15.74
2022-12-09T11:05:37.730Z,15.74
2022-12-09T11:06:38.093Z,15.76
2022-12-09T11:07:37.908Z,15.76
2022-12-09T11:08:38.148Z,15.77
2022-12-09T11:09:38.555Z,15.76
2022-12-09T11:10:38.307Z,15.71
2022-12-09T11:11:37.952Z,15.74
2022-12-09T11:12:41.057Z,15.80
2022-12-09T11:13:37.850Z,15.78
2022-12-09T11:14:38.188Z,15.80
2022-12-09T11:15:38.206Z,15.81
2022-12-09T11:16:38.556Z,15.81
2022-12-09T11:17:38.369Z,15.81
2022-12-09T11:18:38.858Z,15.81
2022-12-09T11:19:39.128Z,15.77
2022-12-09T11:20:38.699Z,15.78
2022-12-09T11:21:38.681Z,15.77
2022-12-09T11:22:39.544Z,15.84
2022-12-09T11:23:38.559Z,15.84
2022-12-09T11:24:37.995Z,15.81
2022-12-09T11:25:38.529Z,15.78
2022-12-09T11:26:38.483Z,15.89
2022-12-09T11:27:38.191Z,15.84
2022-12-09T11:28:38.513Z,15.89
2022-12-09T11:29:38.468Z,15.91
2022-12-09T11:30:47.111Z,15.85
2022-12-09T11:31:38.356Z,15.84
2022-12-09T11:32:38.402Z,15.89
2022-12-09T11:33:38.495Z,15.85
2022-12-09T11:34:38.814Z,15.88
2022-12-09T11:35:38.385Z,15.86
2022-12-09T11:36:42.273Z,15.92
2022-12-09T11:37:38.256Z,15.86
2022-12-09T11:38:38.287Z,15.96
2022-12-09T11:39:38.307Z,15.93
2022-12-09T11:40:38.342Z,15.84
2022-12-09T11:41:38.375Z,15.92
2022-12-09T11:42:38.677Z,15.95
2022-12-09T11:43:38.404Z,15.95
2022-12-09T11:44:38.424Z,15.91
2022-12-09T11:45:38.457Z,15.93
2022-12-09T11:46:38.511Z,15.93
2022-12-09T11:48:21.509Z,15.96
2022-12-09T11:48:43.475Z,15.95
2022-12-09T11:49:38.552Z,15.93
2022-12-09T11:50:38.597Z,15.92
2022-12-09T11:51:38.596Z,15.96
2022-12-09T11:52:38.641Z,15.98
2022-12-09T11:53:38.651Z,15.95
2022-12-09T11:55:38.992Z,15.95
2022-12-09T11:56:38.728Z,15.96
2022-12-09T11:57:38.763Z,15.86
2022-12-09T11:58:38.787Z,15.86
2022-12-09T11:59:38.821Z,15.98
2022-12-09T12:00:38.819Z,15.86
2022-12-09T12:01:38.883Z,15.96
2022-12-09T12:02:38.895Z,15.99
2022-12-09T12:03:38.891Z,15.96
2022-12-09T12:04:38.917Z,15.93
2022-12-09T12:05:38.939Z,15.95
2022-12-09T12:06:38.969Z,15.92
2022-12-09T12:07:39.036Z,15.99
2022-12-09T12:08:39.443Z,15.95
2022-12-09T12:09:39.042Z,15.99
2022-12-09T12:10:39.072Z,15.96
2022-12-09T12:11:39.120Z,16.01
2022-12-09T12:12:39.175Z,15.96
2022-12-09T12:13:39.159Z,16.01
2022-12-09T12:14:39.160Z,15.95
2022-12-09T12:15:39.182Z,16.04
2022-12-09T12:16:39.933Z,15.99
2022-12-09T12:17:39.282Z,15.99
2022-12-09T12:18:39.263Z,15.99
2022-12-09T12:19:39.289Z,16.03
2022-12-09T12:20:39.307Z,16.06
2022-12-09T12:21:39.648Z,16.06
2022-12-09T12:22:39.370Z,15.99
2022-12-09T12:23:39.390Z,16.04
2022-12-09T12:24:39.434Z,16.10
2022-12-09T12:25:39.427Z,16.11
2022-12-09T12:26:39.456Z,16.07
2022-12-09T12:27:39.609Z,16.11
2022-12-09T12:28:39.508Z,16.10
2022-12-09T12:29:39.608Z,16.10
2022-12-09T12:30:39.559Z,16.07
2022-12-09T12:31:39.646Z,16.11
2022-12-09T12:32:39.627Z,16.11
2022-12-09T12:34:39.900Z,16.07
2022-12-09T12:35:39.677Z,16.08
2022-12-09T12:36:39.702Z,16.13
2022-12-09T12:37:39.726Z,16.08
2022-12-09T12:38:39.756Z,16.10
2022-12-09T12:39:39.781Z,16.10
2022-12-09T12:40:40.056Z,16.07
2022-12-09T12:41:39.823Z,16.06
2022-12-09T12:42:39.952Z,16.07
2022-12-09T12:43:39.874Z,16.13
2022-12-09T12:44:39.905Z,16.08
2022-12-09T12:45:39.993Z,16.04
2022-12-09T12:46:39.950Z,16.04
2022-12-09T12:47:39.970Z,16.08
2022-12-09T12:48:40.063Z,16.03
2022-12-09T12:49:40.025Z,16.11
2022-12-09T12:50:40.153Z,16.08
2022-12-09T12:51:40.070Z,16.01
2022-12-09T12:52:55.726Z,16.13
2022-12-09T12:53:40.122Z,16.07
2022-12-09T12:54:40.153Z,16.06
2022-12-09T12:55:40.171Z,16.10
2022-12-09T12:56:40.194Z,16.07
2022-12-09T12:57:40.216Z,16.10
2022-12-09T12:58:40.249Z,16.06
2022-12-09T12:59:40.271Z,16.07
2022-12-09T13:00:40.302Z,16.03
2022-12-09T13:01:40.450Z,16.06
2022-12-09T13:02:40.454Z,16.06
2022-12-09T13:03:40.370Z,16.07
2022-12-09T13:04:40.391Z,16.04
2022-12-09T13:05:40.664Z,16.08
2022-12-09T13:06:40.443Z,16.07
2022-12-09T13:07:40.546Z,16.03
2022-12-09T13:08:40.488Z,16.03
2022-12-09T13:09:40.527Z,16.10
2022-12-09T13:10:40.655Z,16.08
2022-12-09T13:11:40.565Z,16.11
2022-12-09T13:12:40.886Z,16.07
2022-12-09T13:13:40.614Z,16.06
2022-12-09T13:14:40.637Z,16.11
2022-12-09T13:15:40.666Z,16.07
2022-12-09T13:16:40.743Z,16.04